Time;durP1;ratioP1;P1;durP2;ratioP2;P2;SDS_P1;SDS_P2;PMS_P1;PMS_P2;Temp;Humidity;BMP_temperature;BMP_pressure;BME280_temperature;BME280_humidity;BME280_pressure;Samples;Min_cycle;Max_cycle;Signal;HPM_P1;HPM_P2
2022/04/01 08:02:51;;;;;;;;;;;;;;;;;;1593357;27;83581;-85
2022/04/01 08:03:41;;;;;;;;;;;;;;;;;;1580403;27;86192;-86
2022/04/01 08:04:27;;;;;;;;;;;;;;;;;;1575922;27;85191;-85
2022/04/01 08:05:12;;;;;;;;;;;;;;;;;;1578409;27;84904;-86
2022/04/01 08:05:59;;;;;;;;;;;;;;;;;;1581122;27;87548;-86
2022/04/01 08:06:44;;;;;;;;;;;;;;;;;;1575011;27;90226;-85
2022/04/01 08:07:29;;;;;;;;;;;;;;;;;;1569763;27;87135;-85
2022/04/01 08:08:14;;;;;;;;;;;;;;;;;;1568933;27;87127;-84
2022/04/01 08:08:59;;;;;;;;;;;;;;;;;;1571084;27;85251;-85
2022/04/01 08:09:45;;;;;;;;;;;;;;;;;;1575158;27;87971;-83
2022/04/01 08:10:30;;;;;;;;;;;;;;;;;;1573298;27;87985;-84
2022/04/01 08:11:15;;;;;;;;;;;;;;;;;;1579106;27;86901;-84
2022/04/01 08:12:03;;;;;;;;;;;;;;;;;;1569403;27;89671;-85
2022/04/01 08:12:48;;;;;;;;;;;;;;;;;;1570941;27;91766;-85
2022/04/01 08:13:33;;;;;;;;;;;;;;;;;;1569539;27;84896;-85
2022/04/01 08:14:18;;;;;;;;;;;;;;;;;;1569090;27;85949;-85
2022/04/01 08:15:04;;;;;;;;;;;;;;;;;;1570836;27;87873;-85
2022/04/01 08:15:49;;;;;;;;;;;;;;;;;;1571046;27;88231;-86
2022/04/01 08:16:34;;;;;;;;;;;;;;;;;;1569052;27;86246;-85
2022/04/01 08:17:20;;;;;;;;;;;;;;;;;;1571320;27;88453;-84
2022/04/01 08:18:05;;;;;;;;;;;;;;;;;;1576488;27;86229;-85
2022/04/01 08:18:51;;;;;;;;;;;;;;;;;;1571529;27;89297;-84
2022/04/01 08:19:36;;;;;;;;;;;;;;;;;;1570418;27;86102;-85
2022/04/01 08:20:21;;;;;;;;;;;;;;;;;;1574799;27;88471;-85
2022/04/01 08:21:06;;;;;;;;;;;;;;;;;;1570537;27;86339;-85
2022/04/01 08:21:52;;;;;;;;;;;;;;;;;;1574851;27;86390;-85
2022/04/01 08:22:37;;;;;;;;;;;;;;;;;;1575247;27;86348;-84
2022/04/01 08:23:22;;;;;;;;;;;;;;;;;;1574879;27;86355;-85
2022/04/01 08:24:07;;;;;;;;;;;;;;;;;;1571917;27;85888;-85
2022/04/01 08:24:52;;;;;;;;;;;;;;;;;;1571832;27;84193;-86
2022/04/01 08:25:37;;;;;;;;;;;;;;;;;;1576182;27;87174;-85
2022/04/01 08:26:22;;;;;;;;;;;;;;;;;;1577701;27;85549;-85
2022/04/01 08:27:08;;;;;;;;;;;;;;;;;;1577876;27;89952;-85
2022/04/01 08:27:53;;;;;;;;;;;;;;;;;;1577899;27;86271;-85
2022/04/01 08:28:38;;;;;;;;;;;;;;;;;;1578323;27;84645;-85
2022/04/01 08:29:23;;;;;;;;;;;;;;;;;;1578246;27;86080;-84
2022/04/01 08:30:08;;;;;;;;;;;;;;;;;;1571954;27;87105;-85
2022/04/01 08:30:53;;;;;;;;;;;;;;;;;;1567689;27;86573;-84
2022/04/01 08:31:39;;;;;;;;;;;;;;;;;;1574012;27;86774;-84
2022/04/01 08:32:25;;;;;;;;;;;;;;;;;;1574262;27;85261;-84
2022/04/01 08:33:13;;;;;;;;;;;;;;;;;;1569752;27;87268;-84
2022/04/01 08:33:59;;;;;;;;;;;;;;;;;;1568051;27;87058;-84
2022/04/01 08:34:44;;;;;;;;;;;;;;;;;;1568063;27;85472;-84
2022/04/01 08:35:29;;;;;;;;;;;;;;;;;;1574025;27;84073;-84
2022/04/01 08:36:14;;;;;;;;;;;;;;;;;;1580834;27;85717;-84
2022/04/01 08:36:59;;;;;;;;;;;;;;;;;;1578375;27;86446;-84
2022/04/01 08:37:45;;;;;;;;;;;;;;;;;;1572020;27;85590;-84
2022/04/01 08:38:30;;;;;;;;;;;;;;;;;;1575062;27;86911;-84
2022/04/01 08:39:15;;;;;;;;;;;;;;;;;;1572337;27;87063;-84
2022/04/01 08:40:00;;;;;;;;;;;;;;;;;;1567663;27;86372;-84
2022/04/01 08:40:45;;;;;;;;;;;;;;;;;;1574189;27;84994;-84
2022/04/01 08:41:30;;;;;;;;;;;;;;;;;;1580917;27;84038;-84
2022/04/01 08:42:15;;;;;;;;;;;;;;;;;;1584728;27;86855;-85
2022/04/01 08:43:01;;;;;;;;;;;;;;;;;;1585105;27;84035;-84
2022/04/01 08:43:46;;;;;;;;;;;;;;;;;;1578426;27;86678;-85
2022/04/01 08:44:31;;;;;;;;;;;;;;;;;;1578715;27;84970;-84
2022/04/01 08:45:17;;;;;;;;;;;;;;;;;;1574329;27;85480;-84
2022/04/01 08:46:02;;;;;;;;;;;;;;;;;;1574634;27;85818;-84
2022/04/01 08:46:48;;;;;;;;;;;;;;;;;;1574139;27;83616;-84
2022/04/01 08:47:33;;;;;;;;;;;;;;;;;;1578272;27;85354;-84
2022/04/01 08:48:18;;;;;;;;;;;;;;;;;;1579862;27;83297;-84
2022/04/01 08:49:03;;;;;;;;;;;;;;;;;;1574063;27;84742;-85
2022/04/01 08:49:49;;;;;;;;;;;;;;;;;;1578552;27;85623;-84
2022/04/01 08:50:34;;;;;;;;;;;;;;;;;;1572238;27;85007;-84
2022/04/01 08:51:19;;;;;;;;;;;;;;;;;;1572230;27;85332;-84
2022/04/01 08:52:04;;;;;;;;;;;;;;;;;;1574188;27;83359;-84
2022/04/01 08:52:49;;;;;;;;;;;;;;;;;;1579435;27;83320;-84
2022/04/01 08:53:37;;;;;;;;;;;;;;;;;;1576212;27;84504;-84
2022/04/01 08:54:22;;;;;;;;;;;;;;;;;;1574326;27;83512;-84
2022/04/01 08:55:07;;;;;;;;;;;;;;;;;;1574415;27;84816;-84
2022/04/01 08:55:52;;;;;;;;;;;;;;;;;;1578528;27;83548;-84
2022/04/01 08:56:37;;;;;;;;;;;;;;;;;;1578233;27;83603;-84
2022/04/01 08:57:23;;;;;;;;;;;;;;;;;;1578702;27;83329;-84
2022/04/01 08:58:08;;;;;;;;;;;;;;;;;;1580620;27;83515;-84
2022/04/01 08:58:53;;;;;;;;;;;;;;;;;;1578442;27;85436;-84
2022/04/01 08:59:38;;;;;;;;;;;;;;;;;;1572152;27;85477;-84
2022/04/01 09:00:24;;;;;;;;;;;;;;;;;;1567649;27;84588;-84
2022/04/01 09:01:11;;;;;;;;;;;;;;;;;;1567723;27;83573;-84
2022/04/01 09:01:57;;;;;;;;;;;;;;;;;;1574570;27;83577;-84
2022/04/01 09:02:42;;;;;;;;;;;;;;;;;;1569325;27;83538;-84
2022/04/01 09:03:30;;;;;;;;;;;;;;;;;;1567940;27;84292;-84
2022/04/01 09:04:15;;;;;;;;;;;;;;;;;;1565745;27;85952;-84
2022/04/01 09:05:00;;;;;;;;;;;;;;;;;;1565795;27;83540;-84
2022/04/01 09:05:45;;;;;;;;;;;;;;;;;;1559380;28;85192;-85
2022/04/01 09:06:32;;;;;;;;;;;;;;;;;;1555410;28;83482;-85
2022/04/01 09:07:18;;;;;;;;;;;;;;;;;;1564383;27;84543;-84
2022/04/01 09:08:03;;;;;;;;;;;;;;;;;;1562693;27;86387;-84
2022/04/01 09:08:48;;;;;;;;;;;;;;;;;;1559233;28;85988;-86
2022/04/01 09:09:33;;;;;;;;;;;;;;;;;;1561630;27;86214;-86
2022/04/01 09:10:18;;;;;;;;;;;;;;;;;;1565985;27;85680;-84
2022/04/01 09:11:03;;;;;;;;;;;;;;;;;;1565863;27;83212;-84
2022/04/01 09:11:48;;;;;;;;;;;;;;;;;;1561744;27;86046;-84
2022/04/01 09:12:36;;;;;;;;;;;;;;;;;;1565534;27;86326;-84
2022/04/01 09:13:21;;;;;;;;;;;;;;;;;;1566083;27;85395;-84
2022/04/01 09:14:08;;;;;;;;;;;;;;;;;;1562087;27;84158;-84
2022/04/01 09:14:53;;;;;;;;;;;;;;;;;;1558659;27;85693;-84
2022/04/01 09:15:38;;;;;;;;;;;;;;;;;;1567788;27;86361;-84
2022/04/01 09:16:24;;;;;;;;;;;;;;;;;;1561340;28;85287;-84
2022/04/01 09:17:10;;;;;;;;;;;;;;;;;;1563629;27;85699;-84
2022/04/01 09:17:55;;;;;;;;;;;;;;;;;;1570084;27;85117;-83
2022/04/01 09:18:41;;;;;;;;;;;;;;;;;;1574181;27;83683;-84
2022/04/01 09:19:26;;;;;;;;;;;;;;;;;;1567754;27;86124;-84
2022/04/01 09:20:11;;;;;;;;;;;;;;;;;;1561538;28;86114;-84
2022/04/01 09:20:56;;;;;;;;;;;;;;;;;;1563392;27;86085;-83
2022/04/01 09:21:44;;;;;;;;;;;;;;;;;;1563125;27;86642;-84
2022/04/01 09:22:29;;;;;;;;;;;;;;;;;;1561293;28;86161;-84
2022/04/01 09:23:14;;;;;;;;;;;;;;;;;;1557676;28;86154;-84
2022/04/01 09:23:59;;;;;;;;;;;;;;;;;;1556885;28;86203;-84
2022/04/01 09:24:44;;;;;;;;;;;;;;;;;;1561466;28;86047;-84
2022/04/01 09:25:29;;;;;;;;;;;;;;;;;;1555182;28;86605;-84
2022/04/01 09:26:15;;;;;;;;;;;;;;;;;;1557429;28;83210;-85
2022/04/01 09:27:00;;;;;;;;;;;;;;;;;;1566520;27;83573;-84
2022/04/01 09:27:46;;;;;;;;;;;;;;;;;;1567640;27;84915;-84
2022/04/01 09:28:31;;;;;;;;;;;;;;;;;;1570790;27;85349;-84
2022/04/01 09:29:16;;;;;;;;;;;;;;;;;;1568030;27;84002;-85
2022/04/01 09:30:01;;;;;;;;;;;;;;;;;;1567751;27;85905;-85
2022/04/01 09:30:46;;;;;;;;;;;;;;;;;;1561383;28;86864;-85
2022/04/01 09:31:32;;;;;;;;;;;;;;;;;;1563348;27;83153;-84
2022/04/01 09:32:17;;;;;;;;;;;;;;;;;;1567379;27;85614;-84
2022/04/01 09:33:02;;;;;;;;;;;;;;;;;;1567668;27;86713;-85
2022/04/01 09:33:47;;;;;;;;;;;;;;;;;;1567708;27;85939;-84
2022/04/01 09:34:34;;;;;;;;;;;;;;;;;;1560105;28;86651;-84
2022/04/01 09:35:20;;;;;;;;;;;;;;;;;;1551194;28;85668;-84
2022/04/01 09:36:06;;;;;;;;;;;;;;;;;;1551347;28;85083;-84
2022/04/01 09:36:51;;;;;;;;;;;;;;;;;;1551216;28;86860;-84
2022/04/01 09:37:36;;;;;;;;;;;;;;;;;;1550976;28;87083;-84
2022/04/01 09:38:21;;;;;;;;;;;;;;;;;;1550919;28;87085;-84
2022/04/01 09:39:07;;;;;;;;;;;;;;;;;;1550850;28;87064;-84
2022/04/01 09:39:52;;;;;;;;;;;;;;;;;;1550981;28;85383;-84
2022/04/01 09:40:37;;;;;;;;;;;;;;;;;;1550745;28;87171;-84
2022/04/01 09:41:23;;;;;;;;;;;;;;;;;;1552346;28;85141;-84
2022/04/01 09:42:08;;;;;;;;;;;;;;;;;;1557142;28;86496;-84
2022/04/01 09:42:53;;;;;;;;;;;;;;;;;;1557025;28;85736;-84
2022/04/01 09:43:38;;;;;;;;;;;;;;;;;;1563395;27;84676;-83
2022/04/01 09:44:24;;;;;;;;;;;;;;;;;;1567467;27;85803;-85
2022/04/01 09:45:09;;;;;;;;;;;;;;;;;;1567652;27;86581;-84
2022/04/01 09:45:54;;;;;;;;;;;;;;;;;;1567600;27;87082;-84
2022/04/01 09:46:39;;;;;;;;;;;;;;;;;;1564750;27;84760;-84
2022/04/01 09:47:24;;;;;;;;;;;;;;;;;;1557174;28;87130;-84
2022/04/01 09:48:09;;;;;;;;;;;;;;;;;;1561272;28;86399;-84
2022/04/01 09:48:54;;;;;;;;;;;;;;;;;;1561082;28;87000;-84
2022/04/01 09:49:42;;;;;;;;;;;;;;;;;;1559157;28;85892;-84
2022/04/01 09:50:27;;;;;;;;;;;;;;;;;;1563966;28;85899;-84
2022/04/01 09:51:12;;;;;;;;;;;;;;;;;;1560969;28;83392;-84
2022/04/01 09:51:57;;;;;;;;;;;;;;;;;;1563251;27;85557;-84
2022/04/01 09:52:43;;;;;;;;;;;;;;;;;;1560928;27;85876;-84
2022/04/01 09:53:28;;;;;;;;;;;;;;;;;;1554823;28;85387;-84
2022/04/01 09:54:13;;;;;;;;;;;;;;;;;;1554915;28;84877;-84
2022/04/01 09:54:59;;;;;;;;;;;;;;;;;;1557153;28;84723;-84
2022/04/01 09:55:45;;;;;;;;;;;;;;;;;;1563440;27;84387;-84
2022/04/01 09:56:30;;;;;;;;;;;;;;;;;;1559210;28;84806;-84
2022/04/01 09:57:15;;;;;;;;;;;;;;;;;;1561645;28;83830;-84
2022/04/01 09:58:00;;;;;;;;;;;;;;;;;;1559456;28;84599;-85
2022/04/01 09:58:45;;;;;;;;;;;;;;;;;;1561441;28;85956;-85
2022/04/01 09:59:33;;;;;;;;;;;;;;;;;;1561288;27;84525;-85
2022/04/01 10:00:18;;;;;;;;;;;;;;;;;;1561684;28;84761;-85
2022/04/01 10:01:04;;;;;;;;;;;;;;;;;;1570394;27;84430;-85
2022/04/01 10:01:49;;;;;;;;;;;;;;;;;;1567939;27;84759;-85
2022/04/01 10:02:34;;;;;;;;;;;;;;;;;;1569927;27;85559;-85
2022/04/01 10:03:20;;;;;;;;;;;;;;;;;;1563826;27;84954;-85
2022/04/01 10:04:05;;;;;;;;;;;;;;;;;;1569473;27;86206;-85
2022/04/01 10:04:50;;;;;;;;;;;;;;;;;;1573771;27;84628;-85
2022/04/01 10:05:35;;;;;;;;;;;;;;;;;;1567397;27;85388;-86
2022/04/01 10:06:20;;;;;;;;;;;;;;;;;;1567498;27;84642;-85
2022/04/01 10:07:05;;;;;;;;;;;;;;;;;;1569110;27;83442;-85
2022/04/01 10:07:50;;;;;;;;;;;;;;;;;;1569620;27;85732;-85
2022/04/01 10:08:36;;;;;;;;;;;;;;;;;;1573873;27;85733;-85
2022/04/01 10:09:21;;;;;;;;;;;;;;;;;;1573973;27;85389;-85
2022/04/01 10:10:06;;;;;;;;;;;;;;;;;;1573727;27;85499;-85
2022/04/01 10:10:51;;;;;;;;;;;;;;;;;;1569177;27;84929;-84
2022/04/01 10:11:37;;;;;;;;;;;;;;;;;;1569886;27;84732;-83
2022/04/01 10:12:22;;;;;;;;;;;;;;;;;;1567581;27;84618;-85
2022/04/01 10:13:07;;;;;;;;;;;;;;;;;;1563196;27;85655;-85
2022/04/01 10:13:52;;;;;;;;;;;;;;;;;;1561119;28;84676;-84
2022/04/01 10:14:39;;;;;;;;;;;;;;;;;;1562748;27;85509;-84
2022/04/01 10:15:24;;;;;;;;;;;;;;;;;;1567203;27;86454;-84
2022/04/01 10:16:10;;;;;;;;;;;;;;;;;;1560823;28;85569;-84
2022/04/01 10:16:55;;;;;;;;;;;;;;;;;;1556702;28;86257;-85
2022/04/01 10:17:40;;;;;;;;;;;;;;;;;;1562757;27;85360;-84
2022/04/01 10:18:25;;;;;;;;;;;;;;;;;;1567345;27;85070;-84
2022/04/01 10:19:11;;;;;;;;;;;;;;;;;;1560943;28;85851;-84
2022/04/01 10:19:57;;;;;;;;;;;;;;;;;;1557027;28;86821;-84
2022/04/01 10:20:42;;;;;;;;;;;;;;;;;;1566050;27;86157;-84
2022/04/01 10:21:27;;;;;;;;;;;;;;;;;;1566949;27;86127;-85
2022/04/01 10:22:16;;;;;;;;;;;;;;;;;;1566915;27;86315;-84
2022/04/01 10:23:03;;;;;;;;;;;;;;;;;;1567279;27;86553;-85
2022/04/01 10:23:48;;;;;;;;;;;;;;;;;;1567547;27;86740;-85
2022/04/01 10:24:34;;;;;;;;;;;;;;;;;;1575645;27;84702;-84
2022/04/01 10:25:19;;;;;;;;;;;;;;;;;;1571245;27;86587;-84
2022/04/01 10:26:04;;;;;;;;;;;;;;;;;;1567722;27;83645;-84
2022/04/01 10:26:49;;;;;;;;;;;;;;;;;;1569087;27;85214;-84
2022/04/01 10:27:35;;;;;;;;;;;;;;;;;;1567241;27;85818;-85
2022/04/01 10:28:20;;;;;;;;;;;;;;;;;;1569385;27;86259;-85
2022/04/01 10:29:06;;;;;;;;;;;;;;;;;;1573308;27;86078;-84
2022/04/01 10:29:51;;;;;;;;;;;;;;;;;;1569001;27;85826;-84
2022/04/01 10:30:37;;;;;;;;;;;;;;;;;;1567323;27;86331;-84
2022/04/01 10:31:25;;;;;;;;;;;;;;;;;;1562183;27;84839;-84
2022/04/01 10:32:11;;;;;;;;;;;;;;;;;;1565792;27;89592;-84
2022/04/01 10:32:56;;;;;;;;;;;;;;;;;;1569612;27;84689;-85
2022/04/01 10:33:41;;;;;;;;;;;;;;;;;;1572074;27;86569;-84
2022/04/01 10:34:26;;;;;;;;;;;;;;;;;;1573611;27;86497;-84
2022/04/01 10:35:11;;;;;;;;;;;;;;;;;;1573315;27;86646;-85
2022/04/01 10:35:57;;;;;;;;;;;;;;;;;;1567043;27;87063;-84
2022/04/01 10:36:43;;;;;;;;;;;;;;;;;;1562815;27;86689;-84
2022/04/01 10:37:28;;;;;;;;;;;;;;;;;;1562810;27;86911;-84
2022/04/01 10:38:13;;;;;;;;;;;;;;;;;;1563026;27;85465;-85
2022/04/01 10:38:58;;;;;;;;;;;;;;;;;;1563160;27;86781;-84
2022/04/01 10:39:43;;;;;;;;;;;;;;;;;;1562921;27;86406;-84
2022/04/01 10:40:28;;;;;;;;;;;;;;;;;;1562360;27;85769;-84
2022/04/01 10:41:15;;;;;;;;;;;;;;;;;;1566652;27;85447;-84
2022/04/01 10:42:00;;;;;;;;;;;;;;;;;;1569445;27;86940;-85
2022/04/01 10:42:46;;;;;;;;;;;;;;;;;;1569275;27;86289;-88
2022/04/01 10:43:31;;;;;;;;;;;;;;;;;;1562935;27;85789;-86
2022/04/01 10:44:16;;;;;;;;;;;;;;;;;;1563111;27;86687;-85
2022/04/01 10:45:01;;;;;;;;;;;;;;;;;;1569198;27;85441;-84
2022/04/01 10:45:46;;;;;;;;;;;;;;;;;;1569098;27;85588;-85
2022/04/01 10:46:31;;;;;;;;;;;;;;;;;;1573599;27;85191;-85
2022/04/01 10:47:17;;;;;;;;;;;;;;;;;;1573428;27;86253;-85
2022/04/01 10:52:22;;;;;;;;;;;;;;;;;;1573983;27;83565;-85
2022/04/01 10:53:08;;;;;;;;;;;;;;;;;;1570437;27;84605;-85
2022/04/01 10:53:53;;;;;;;;;;;;;;;;;;1567095;27;86989;-85
2022/04/01 10:54:42;;;;;;;;;;;;;;;;;;1567325;27;86796;-85
2022/04/01 10:55:27;;;;;;;;;;;;;;;;;;1571274;27;86602;-85
2022/04/01 10:56:12;;;;;;;;;;;;;;;;;;1569857;27;85782;-85
2022/04/01 10:57:00;;;;;;;;;;;;;;;;;;1562749;27;85312;-85
2022/04/01 10:57:45;;;;;;;;;;;;;;;;;;1568654;27;84833;-86
2022/04/01 10:58:30;;;;;;;;;;;;;;;;;;1575796;27;83826;-85
2022/04/01 10:59:15;;;;;;;;;;;;;;;;;;1579789;27;85047;-84
2022/04/01 11:00:00;;;;;;;;;;;;;;;;;;1573448;27;86478;-86
2022/04/01 11:00:46;;;;;;;;;;;;;;;;;;1573396;27;85813;-84
2022/04/01 11:01:31;;;;;;;;;;;;;;;;;;1573485;27;85535;-85
2022/04/01 11:02:16;;;;;;;;;;;;;;;;;;1565159;27;85756;-85
2022/04/01 11:03:01;;;;;;;;;;;;;;;;;;1556485;28;85113;-85
2022/04/01 11:03:46;;;;;;;;;;;;;;;;;;1562691;27;85211;-84
2022/04/01 11:04:31;;;;;;;;;;;;;;;;;;1567083;27;85473;-85
2022/04/01 11:05:16;;;;;;;;;;;;;;;;;;1562536;27;83857;-85
2022/04/01 11:06:01;;;;;;;;;;;;;;;;;;1567131;27;85687;-85
2022/04/01 11:06:46;;;;;;;;;;;;;;;;;;1560842;28;85935;-84
2022/04/01 11:07:33;;;;;;;;;;;;;;;;;;1560804;28;85479;-85
2022/04/01 11:08:19;;;;;;;;;;;;;;;;;;1562974;27;84968;-85
2022/04/01 11:09:04;;;;;;;;;;;;;;;;;;1560693;28;84796;-85
2022/04/01 11:09:50;;;;;;;;;;;;;;;;;;1560661;28;85871;-84
2022/04/01 11:10:35;;;;;;;;;;;;;;;;;;1562872;27;84811;-85
2022/04/01 11:11:20;;;;;;;;;;;;;;;;;;1560655;28;85308;-84
2022/04/01 11:12:05;;;;;;;;;;;;;;;;;;1560633;28;85633;-85
2022/04/01 11:12:50;;;;;;;;;;;;;;;;;;1563103;27;85642;-86
2022/04/01 11:13:35;;;;;;;;;;;;;;;;;;1561012;28;86091;-84
2022/04/01 11:14:20;;;;;;;;;;;;;;;;;;1562837;27;85032;-85
2022/04/01 11:15:09;;;;;;;;;;;;;;;;;;1562752;27;83509;-85
2022/04/01 11:15:54;;;;;;;;;;;;;;;;;;1560667;28;85267;-85
2022/04/01 11:16:39;;;;;;;;;;;;;;;;;;1560792;28;85547;-85
2022/04/01 11:17:24;;;;;;;;;;;;;;;;;;1562704;27;83190;-85
2022/04/01 11:18:10;;;;;;;;;;;;;;;;;;1565520;27;84911;-85
2022/04/01 11:18:55;;;;;;;;;;;;;;;;;;1560424;28;86686;-85
2022/04/01 11:19:40;;;;;;;;;;;;;;;;;;1561686;27;85257;-84
2022/04/01 11:20:29;;;;;;;;;;;;;;;;;;1566027;27;87620;-84
2022/04/01 11:21:14;;;;;;;;;;;;;;;;;;1560912;27;86715;-85
2022/04/01 11:21:59;;;;;;;;;;;;;;;;;;1567007;27;85616;-84
2022/04/01 11:22:45;;;;;;;;;;;;;;;;;;1565854;27;83709;-86
2022/04/01 11:23:30;;;;;;;;;;;;;;;;;;1561250;27;86426;-86
2022/04/01 11:24:16;;;;;;;;;;;;;;;;;;1560282;28;85109;-84
2022/04/01 11:25:01;;;;;;;;;;;;;;;;;;1562502;27;85337;-86
2022/04/01 11:25:50;;;;;;;;;;;;;;;;;;1562834;27;86421;-85
2022/04/01 11:26:35;;;;;;;;;;;;;;;;;;1560606;28;85124;-85
2022/04/01 11:27:20;;;;;;;;;;;;;;;;;;1563227;27;86169;-85
2022/04/01 11:28:06;;;;;;;;;;;;;;;;;;1560530;27;85942;-85
2022/04/01 11:28:51;;;;;;;;;;;;;;;;;;1556870;28;86402;-86
2022/04/01 11:29:36;;;;;;;;;;;;;;;;;;1556687;28;86521;-85
2022/04/01 11:30:22;;;;;;;;;;;;;;;;;;1562615;27;85203;-86
2022/04/01 11:31:07;;;;;;;;;;;;;;;;;;1560804;28;84264;-86
2022/04/01 11:31:52;;;;;;;;;;;;;;;;;;1562938;27;83528;-86
2022/04/01 11:32:37;;;;;;;;;;;;;;;;;;1562620;27;86364;-86
2022/04/01 11:33:22;;;;;;;;;;;;;;;;;;1560704;28;85486;-86
2022/04/01 11:34:07;;;;;;;;;;;;;;;;;;1560584;28;84760;-86
2022/04/01 11:34:52;;;;;;;;;;;;;;;;;;1556338;28;85257;-85
2022/04/01 11:35:39;;;;;;;;;;;;;;;;;;1556553;28;84592;-87
2022/04/01 11:36:24;;;;;;;;;;;;;;;;;;1556620;28;86616;-85
2022/04/01 11:37:09;;;;;;;;;;;;;;;;;;1556268;28;85080;-85
2022/04/01 11:37:55;;;;;;;;;;;;;;;;;;1556227;28;86099;-85
2022/04/01 11:38:40;;;;;;;;;;;;;;;;;;1556458;28;86073;-86
2022/04/01 11:39:25;;;;;;;;;;;;;;;;;;1559286;28;86273;-86
2022/04/01 11:40:10;;;;;;;;;;;;;;;;;;1556500;28;86773;-86
2022/04/01 11:40:56;;;;;;;;;;;;;;;;;;1562739;27;86602;-85
2022/04/01 11:41:41;;;;;;;;;;;;;;;;;;1566864;27;86994;-85
2022/04/01 11:42:26;;;;;;;;;;;;;;;;;;1560816;28;85658;-85
2022/04/01 11:43:11;;;;;;;;;;;;;;;;;;1556194;28;86017;-85
2022/04/01 11:43:56;;;;;;;;;;;;;;;;;;1556378;28;87129;-85
2022/04/01 11:44:41;;;;;;;;;;;;;;;;;;1562800;27;86533;-85
2022/04/01 11:45:26;;;;;;;;;;;;;;;;;;1560582;27;86870;-85
2022/04/01 11:46:13;;;;;;;;;;;;;;;;;;1556343;28;85842;-84
2022/04/01 11:46:59;;;;;;;;;;;;;;;;;;1562882;27;87035;-85
2022/04/01 11:47:44;;;;;;;;;;;;;;;;;;1560808;28;85604;-85
2022/04/01 11:48:29;;;;;;;;;;;;;;;;;;1556207;28;86863;-85
2022/04/01 11:49:15;;;;;;;;;;;;;;;;;;1556096;28;84994;-85
2022/04/01 11:50:00;;;;;;;;;;;;;;;;;;1556033;28;86207;-85
2022/04/01 11:50:45;;;;;;;;;;;;;;;;;;1560533;28;86711;-84
2022/04/01 11:51:30;;;;;;;;;;;;;;;;;;1554286;28;86882;-84
2022/04/01 11:52:16;;;;;;;;;;;;;;;;;;1550465;28;86741;-85
2022/04/01 11:53:01;;;;;;;;;;;;;;;;;;1558067;28;86965;-79
2022/04/01 11:53:48;;;;;;;;;;;;;;;;;;1560713;28;83677;-79
2022/04/01 11:54:34;;;;;;;;;;;;;;;;;;1556747;28;84263;-79
2022/04/01 11:55:19;;;;;;;;;;;;;;;;;;1560521;27;84568;-78
2022/04/01 11:56:04;;;;;;;;;;;;;;;;;;1560683;28;84478;-79
2022/04/01 11:56:50;;;;;;;;;;;;;;;;;;1560899;28;84330;-81
2022/04/01 11:58:09;;;;;;;;;;;;;;;;;;1567842;27;83527;-78
2022/04/01 11:58:54;;;;;;;;;;;;;;;;;;1563790;27;83336;-78
2022/04/01 11:59:39;;;;;;;;;;;;;;;;;;1564729;27;83822;-78
2022/04/01 12:00:24;;;;;;;;;;;;;;;;;;1571761;27;85185;-78
2022/04/01 12:01:09;;;;;;;;;;;;;;;;;;1572168;27;85257;-78
2022/04/01 12:01:54;;;;;;;;;;;;;;;;;;1567231;27;83754;-78
2022/04/01 12:02:40;;;;;;;;;;;;;;;;;;1568957;27;86400;-78
2022/04/01 12:03:25;;;;;;;;;;;;;;;;;;1561852;27;88221;-78
2022/04/01 12:04:11;;;;;;;;;;;;;;;;;;1560239;27;84039;-78
2022/04/01 12:04:56;;;;;;;;;;;;;;;;;;1561156;27;84138;-78
2022/04/01 12:05:41;;;;;;;;;;;;;;;;;;1561117;27;87580;-78
2022/04/01 12:08:45;;;;;;;;;;;;;;;;;;1561849;27;85172;-78
2022/04/01 12:11:10;;;;;;;;;;;;;;;;;;1569812;27;83372;-67
2022/04/01 12:11:58;;;;;;;;;;;;;;;;;;1568469;27;83148;-67
2022/04/01 12:12:43;;;;;;;;;;;;;;;;;;1567936;27;85443;-67
2022/04/01 12:13:28;;;;;;;;;;;;;;;;;;1568039;27;83434;-68
2022/04/01 12:14:13;;;;;;;;;;;;;;;;;;1567979;27;83285;-68
2022/04/01 12:15:00;;;;;;;;;;;;;;;;;;1568191;27;83446;-67
2022/04/01 12:15:45;;;;;;;;;;;;;;;;;;1568521;27;83352;-66
2022/04/01 12:16:30;;;;;;;;;;;;;;;;;;1568530;27;83346;-67
2022/04/01 12:17:15;;;;;;;;;;;;;;;;;;1568419;27;83449;-65
2022/04/01 12:18:00;;;;;;;;;;;;;;;;;;1568334;27;83144;-67
2022/04/01 12:18:49;;;;;;;;;;;;;;;;;;1568533;27;83191;-66
2022/04/01 12:19:34;;;;;;;;;;;;;;;;;;1568528;27;83429;-66
2022/04/01 12:20:19;;;;;;;;;;;;;;;;;;1568379;27;83436;-67
2022/04/01 12:21:05;;;;;;;;;;;;;;;;;;1568816;27;83364;-68
2022/04/01 12:21:50;;;;;;;;;;;;;;;;;;1568215;27;83268;-65
2022/04/01 12:22:35;;;;;;;;;;;;;;;;;;1568591;27;83447;-67
2022/04/01 12:23:20;;;;;;;;;;;;;;;;;;1568443;27;83177;-67
2022/04/01 12:24:05;;;;;;;;;;;;;;;;;;1568441;27;83290;-67
2022/04/01 12:24:51;;;;;;;;;;;;;;;;;;1568505;27;83723;-69
2022/04/01 12:25:36;;;;;;;;;;;;;;;;;;1568546;27;83166;-66
2022/04/01 12:26:21;;;;;;;;;;;;;;;;;;1568342;27;83453;-66
2022/04/01 12:27:09;;;;;;;;;;;;;;;;;;1568395;27;83485;-70
2022/04/01 12:27:54;;;;;;;;;;;;;;;;;;1568454;27;83466;-69
2022/04/01 12:28:39;;;;;;;;;;;;;;;;;;1568652;27;83289;-67
2022/04/01 12:29:24;;;;;;;;;;;;;;;;;;1568351;27;83445;-72
2022/04/01 12:30:09;;;;;;;;;;;;;;;;;;1568458;27;83708;-66
2022/04/01 12:30:55;;;;;;;;;;;;;;;;;;1568380;27;83428;-68
2022/04/01 12:31:40;;;;;;;;;;;;;;;;;;1568536;27;83401;-68
2022/04/01 12:32:25;;;;;;;;;;;;;;;;;;1570930;27;83468;-65
2022/04/01 12:33:10;;;;;;;;;;;;;;;;;;1567755;27;85928;-64
2022/04/01 12:33:55;;;;;;;;;;;;;;;;;;1567933;27;83776;-68
2022/04/01 12:34:40;;;;;;;;;;;;;;;;;;1568183;27;83854;-68
2022/04/01 12:35:26;;;;;;;;;;;;;;;;;;1568399;27;84000;-72
2022/04/01 12:36:11;;;;;;;;;;;;;;;;;;1568326;27;83687;-66
2022/04/01 12:36:56;;;;;;;;;;;;;;;;;;1568410;27;83840;-66
2022/04/01 12:37:41;;;;;;;;;;;;;;;;;;1568413;27;83837;-66
2022/04/01 12:38:26;;;;;;;;;;;;;;;;;;1568204;27;83704;-65
2022/04/01 12:39:12;;;;;;;;;;;;;;;;;;1568356;27;83940;-65
2022/04/01 12:39:57;;;;;;;;;;;;;;;;;;1568261;27;83863;-66
2022/04/01 12:40:43;;;;;;;;;;;;;;;;;;1568459;27;83857;-65
2022/04/01 12:41:28;;;;;;;;;;;;;;;;;;1568127;27;83843;-66
2022/04/01 12:42:15;;;;;;;;;;;;;;;;;;1568316;27;83813;-66
2022/04/01 12:43:00;;;;;;;;;;;;;;;;;;1568339;27;83742;-66
2022/04/01 12:43:45;;;;;;;;;;;;;;;;;;1568430;27;83762;-66
2022/04/01 12:44:31;;;;;;;;;;;;;;;;;;1568309;27;84063;-66
2022/04/01 12:45:16;;;;;;;;;;;;;;;;;;1568418;27;83065;-66
2022/04/01 12:46:01;;;;;;;;;;;;;;;;;;1568364;27;83883;-66
2022/04/01 12:46:46;;;;;;;;;;;;;;;;;;1568189;27;83964;-66
2022/04/01 12:47:32;;;;;;;;;;;;;;;;;;1567685;27;85045;-66
2022/04/01 12:48:18;;;;;;;;;;;;;;;;;;1567800;27;84177;-66
2022/04/01 12:49:03;;;;;;;;;;;;;;;;;;1567933;27;83175;-66
2022/04/01 12:49:48;;;;;;;;;;;;;;;;;;1568307;27;83805;-66
2022/04/01 12:50:33;;;;;;;;;;;;;;;;;;1568239;27;83825;-66
2022/04/01 12:51:19;;;;;;;;;;;;;;;;;;1568285;27;83835;-66
2022/04/01 12:52:04;;;;;;;;;;;;;;;;;;1568226;27;83218;-66
2022/04/01 12:52:49;;;;;;;;;;;;;;;;;;1568345;27;83655;-66
2022/04/01 12:53:36;;;;;;;;;;;;;;;;;;1568116;27;84306;-66
2022/04/01 12:54:21;;;;;;;;;;;;;;;;;;1570825;27;83392;-66
2022/04/01 12:55:06;;;;;;;;;;;;;;;;;;1568282;27;83528;-66
2022/04/01 12:55:51;;;;;;;;;;;;;;;;;;1568388;27;83165;-66
2022/04/01 12:56:36;;;;;;;;;;;;;;;;;;1568222;27;83322;-66
2022/04/01 12:57:21;;;;;;;;;;;;;;;;;;1568289;27;83495;-66
2022/04/01 12:58:12;;;;;;;;;;;;;;;;;;1568093;27;83512;-66
2022/04/01 12:58:57;;;;;;;;;;;;;;;;;;1568232;27;83366;-66
2022/04/01 12:59:42;;;;;;;;;;;;;;;;;;1568292;27;83302;-66
2022/04/01 13:00:27;;;;;;;;;;;;;;;;;;1568205;27;83464;-66
2022/04/01 13:01:12;;;;;;;;;;;;;;;;;;1568009;27;84362;-66
2022/04/01 13:01:58;;;;;;;;;;;;;;;;;;1568231;27;83185;-67
2022/04/01 13:02:43;;;;;;;;;;;;;;;;;;1568344;27;83072;-66
2022/04/01 13:03:28;;;;;;;;;;;;;;;;;;1567592;27;83473;-63
2022/04/01 13:04:13;;;;;;;;;;;;;;;;;;1567702;27;83227;-66
2022/04/01 13:04:59;;;;;;;;;;;;;;;;;;1567849;27;83347;-66
2022/04/01 13:05:44;;;;;;;;;;;;;;;;;;1568273;27;83377;-65
2022/04/01 13:06:29;;;;;;;;;;;;;;;;;;1571875;27;83442;-65
2022/04/01 13:07:15;;;;;;;;;;;;;;;;;;1567251;27;83483;-65
2022/04/01 13:08:00;;;;;;;;;;;;;;;;;;1568134;27;83064;-66
2022/04/01 13:08:45;;;;;;;;;;;;;;;;;;1568315;27;83220;-66
2022/04/01 13:09:31;;;;;;;;;;;;;;;;;;1568172;27;83301;-66
2022/04/01 13:10:17;;;;;;;;;;;;;;;;;;1568249;27;83444;-65
2022/04/01 13:11:02;;;;;;;;;;;;;;;;;;1567900;27;83274;-65
2022/04/01 13:11:48;;;;;;;;;;;;;;;;;;1568215;27;83229;-66
2022/04/01 13:12:40;;;;;;;;;;;;;;;;;;1568183;27;83071;-66
2022/04/01 13:13:25;;;;;;;;;;;;;;;;;;1567848;27;83223;-66
2022/04/01 13:14:10;;;;;;;;;;;;;;;;;;1567660;27;83468;-66
2022/04/01 13:14:55;;;;;;;;;;;;;;;;;;1567867;27;83275;-66
2022/04/01 13:15:40;;;;;;;;;;;;;;;;;;1569878;27;82932;-66
2022/04/01 13:16:26;;;;;;;;;;;;;;;;;;1518857;27;83525;-66
2022/04/01 13:17:11;;;;;;;;;;;;;;;;;;1543003;28;83943;-66
2022/04/01 13:17:57;;;;;;;;;;;;;;;;;;1542921;28;83306;-66
2022/04/01 13:18:42;;;;;;;;;;;;;;;;;;1542611;28;83333;-66
2022/04/01 13:19:27;;;;;;;;;;;;;;;;;;1541033;28;86263;-66
2022/04/01 13:20:56;;;;;;;;;;;;;;;;;;1562702;27;83459;-60
2022/04/01 13:21:41;;;;;;;;;;;;;;;;;;1479851;27;83295;-65
2022/04/01 13:22:26;;;;;;;;;;;;;;;;;;1468128;27;141308;-67